sensor_id;sensor_type;location;lat;lon;timestamp;P1;durP1;ratioP1;P2;durP2;ratioP2
25717;SDS011;13574;52.040;5.692;2023-07-29T00:01:15;8.95;;;6.95;;
25717;SDS011;13574;52.040;5.692;2023-07-29T00:03:41;10.60;;;6.80;;
25717;SDS011;13574;52.040;5.692;2023-07-29T00:06:07;9.90;;;6.47;;
25717;SDS011;13574;52.040;5.692;2023-07-29T00:08:32;9.82;;;6.65;;
25717;SDS011;13574;52.040;5.692;2023-07-29T00:10:58;10.23;;;5.90;;
25717;SDS011;13574;52.040;5.692;2023-07-29T00:13:24;9.75;;;6.22;;
25717;SDS011;13574;52.040;5.692;2023-07-29T00:15:49;9.23;;;6.38;;
25717;SDS011;13574;52.040;5.692;2023-07-29T00:18:15;9.77;;;6.15;;
25717;SDS011;13574;52.040;5.692;2023-07-29T00:20:40;7.32;;;5.70;;
25717;SDS011;13574;52.040;5.692;2023-07-29T00:23:06;9.18;;;5.78;;
25717;SDS011;13574;52.040;5.692;2023-07-29T00:25:32;9.30;;;6.50;;
25717;SDS011;13574;52.040;5.692;2023-07-29T00:27:58;8.23;;;5.50;;
25717;SDS011;13574;52.040;5.692;2023-07-29T00:30:24;7.50;;;4.95;;
25717;SDS011;13574;52.040;5.692;2023-07-29T00:32:49;6.90;;;4.95;;
25717;SDS011;13574;52.040;5.692;2023-07-29T00:35:15;6.80;;;5.00;;
25717;SDS011;13574;52.040;5.692;2023-07-29T00:37:41;6.88;;;4.80;;
25717;SDS011;13574;52.040;5.692;2023-07-29T00:40:09;7.97;;;4.93;;
25717;SDS011;13574;52.040;5.692;2023-07-29T00:42:41;7.32;;;4.50;;
25717;SDS011;13574;52.040;5.692;2023-07-29T00:45:08;6.72;;;4.75;;
25717;SDS011;13574;52.040;5.692;2023-07-29T00:47:34;7.45;;;4.72;;
25717;SDS011;13574;52.040;5.692;2023-07-29T00:50:00;8.13;;;5.47;;
25717;SDS011;13574;52.040;5.692;2023-07-29T00:52:26;7.82;;;5.22;;
25717;SDS011;13574;52.040;5.692;2023-07-29T00:54:51;9.85;;;5.95;;
25717;SDS011;13574;52.040;5.692;2023-07-29T00:57:17;7.97;;;5.55;;
25717;SDS011;13574;52.040;5.692;2023-07-29T00:59:45;6.90;;;4.70;;
25717;SDS011;13574;52.040;5.692;2023-07-29T01:02:11;10.15;;;5.55;;
25717;SDS011;13574;52.040;5.692;2023-07-29T01:04:37;7.60;;;5.40;;
25717;SDS011;13574;52.040;5.692;2023-07-29T01:07:07;9.57;;;6.25;;
25717;SDS011;13574;52.040;5.692;2023-07-29T01:09:55;11.07;;;5.75;;
25717;SDS011;13574;52.040;5.692;2023-07-29T01:15:11;10.60;;;6.75;;
25717;SDS011;13574;52.040;5.692;2023-07-29T01:17:47;12.38;;;9.20;;
25717;SDS011;13574;52.040;5.692;2023-07-29T01:20:29;16.05;;;8.48;;
25717;SDS011;13574;52.040;5.692;2023-07-29T01:23:02;11.85;;;8.70;;
25717;SDS011;13574;52.040;5.692;2023-07-29T01:25:27;9.73;;;7.28;;
25717;SDS011;13574;52.040;5.692;2023-07-29T01:27:53;9.80;;;7.20;;
25717;SDS011;13574;52.040;5.692;2023-07-29T01:30:20;11.38;;;8.07;;
25717;SDS011;13574;52.040;5.692;2023-07-29T01:32:54;11.25;;;8.15;;
25717;SDS011;13574;52.040;5.692;2023-07-29T01:35:35;9.63;;;6.60;;
25717;SDS011;13574;52.040;5.692;2023-07-29T01:38:09;9.32;;;6.90;;
25717;SDS011;13574;52.040;5.692;2023-07-29T01:40:47;11.97;;;7.17;;
25717;SDS011;13574;52.040;5.692;2023-07-29T01:43:15;9.40;;;6.97;;
25717;SDS011;13574;52.040;5.692;2023-07-29T01:45:43;10.43;;;6.05;;
25717;SDS011;13574;52.040;5.692;2023-07-29T01:48:09;9.25;;;7.45;;
25717;SDS011;13574;52.040;5.692;2023-07-29T01:50:35;9.98;;;7.07;;
25717;SDS011;13574;52.040;5.692;2023-07-29T01:53:00;11.10;;;7.25;;
25717;SDS011;13574;52.040;5.692;2023-07-29T01:55:26;9.48;;;6.78;;
25717;SDS011;13574;52.040;5.692;2023-07-29T01:57:52;9.98;;;6.78;;
25717;SDS011;13574;52.040;5.692;2023-07-29T02:00:18;11.73;;;7.13;;
25717;SDS011;13574;52.040;5.692;2023-07-29T02:02:44;8.05;;;6.55;;
25717;SDS011;13574;52.040;5.692;2023-07-29T02:05:10;8.95;;;5.68;;
25717;SDS011;13574;52.040;5.692;2023-07-29T02:07:35;9.50;;;6.32;;
25717;SDS011;13574;52.040;5.692;2023-07-29T02:10:01;10.27;;;5.90;;
25717;SDS011;13574;52.040;5.692;2023-07-29T02:12:27;11.55;;;6.95;;
25717;SDS011;13574;52.040;5.692;2023-07-29T02:14:53;10.95;;;7.47;;
25717;SDS011;13574;52.040;5.692;2023-07-29T02:17:18;11.68;;;8.68;;
25717;SDS011;13574;52.040;5.692;2023-07-29T02:19:44;12.48;;;9.40;;
25717;SDS011;13574;52.040;5.692;2023-07-29T02:22:12;14.50;;;9.82;;
25717;SDS011;13574;52.040;5.692;2023-07-29T02:24:39;11.00;;;7.70;;
25717;SDS011;13574;52.040;5.692;2023-07-29T02:27:05;15.95;;;10.52;;
25717;SDS011;13574;52.040;5.692;2023-07-29T02:29:30;17.58;;;10.50;;
25717;SDS011;13574;52.040;5.692;2023-07-29T02:31:58;14.70;;;10.35;;
25717;SDS011;13574;52.040;5.692;2023-07-29T02:34:24;17.08;;;10.65;;
25717;SDS011;13574;52.040;5.692;2023-07-29T02:36:50;15.38;;;9.98;;
25717;SDS011;13574;52.040;5.692;2023-07-29T02:39:15;12.52;;;8.60;;
25717;SDS011;13574;52.040;5.692;2023-07-29T02:41:41;9.18;;;6.38;;
25717;SDS011;13574;52.040;5.692;2023-07-29T02:44:07;12.48;;;7.68;;
25717;SDS011;13574;52.040;5.692;2023-07-29T02:46:32;10.90;;;7.05;;
25717;SDS011;13574;52.040;5.692;2023-07-29T02:48:58;10.27;;;6.80;;
25717;SDS011;13574;52.040;5.692;2023-07-29T02:51:24;11.18;;;7.28;;
25717;SDS011;13574;52.040;5.692;2023-07-29T02:53:49;15.95;;;10.55;;
25717;SDS011;13574;52.040;5.692;2023-07-29T02:56:15;15.88;;;10.45;;
25717;SDS011;13574;52.040;5.692;2023-07-29T02:58:41;13.25;;;9.57;;
25717;SDS011;13574;52.040;5.692;2023-07-29T03:01:07;15.82;;;11.40;;
25717;SDS011;13574;52.040;5.692;2023-07-29T03:03:32;16.40;;;11.63;;
25717;SDS011;13574;52.040;5.692;2023-07-29T03:05:59;11.05;;;8.20;;
25717;SDS011;13574;52.040;5.692;2023-07-29T03:08:25;14.50;;;10.27;;
25717;SDS011;13574;52.040;5.692;2023-07-29T03:10:51;17.13;;;10.43;;
25717;SDS011;13574;52.040;5.692;2023-07-29T03:13:16;14.88;;;8.57;;
25717;SDS011;13574;52.040;5.692;2023-07-29T03:15:42;13.52;;;9.02;;
25717;SDS011;13574;52.040;5.692;2023-07-29T03:18:07;12.32;;;7.65;;
25717;SDS011;13574;52.040;5.692;2023-07-29T03:20:33;11.32;;;6.55;;
25717;SDS011;13574;52.040;5.692;2023-07-29T03:22:59;10.52;;;6.63;;
25717;SDS011;13574;52.040;5.692;2023-07-29T03:25:24;10.18;;;6.72;;
25717;SDS011;13574;52.040;5.692;2023-07-29T03:27:50;14.50;;;6.75;;
25717;SDS011;13574;52.040;5.692;2023-07-29T03:30:18;9.60;;;5.50;;
25717;SDS011;13574;52.040;5.692;2023-07-29T03:32:46;10.60;;;6.35;;
25717;SDS011;13574;52.040;5.692;2023-07-29T03:35:11;9.73;;;5.97;;
25717;SDS011;13574;52.040;5.692;2023-07-29T03:37:37;9.23;;;5.82;;
25717;SDS011;13574;52.040;5.692;2023-07-29T03:40:03;10.23;;;6.20;;
25717;SDS011;13574;52.040;5.692;2023-07-29T03:42:29;12.65;;;5.70;;
25717;SDS011;13574;52.040;5.692;2023-07-29T03:44:55;10.65;;;5.97;;
25717;SDS011;13574;52.040;5.692;2023-07-29T03:47:20;8.98;;;5.95;;
25717;SDS011;13574;52.040;5.692;2023-07-29T03:49:46;12.50;;;7.18;;
25717;SDS011;13574;52.040;5.692;2023-07-29T03:52:11;12.52;;;7.93;;
25717;SDS011;13574;52.040;5.692;2023-07-29T03:54:37;9.35;;;6.90;;
25717;SDS011;13574;52.040;5.692;2023-07-29T03:57:03;11.68;;;7.53;;
25717;SDS011;13574;52.040;5.692;2023-07-29T03:59:28;9.95;;;7.13;;
25717;SDS011;13574;52.040;5.692;2023-07-29T04:01:54;11.50;;;6.72;;
25717;SDS011;13574;52.040;5.692;2023-07-29T04:04:20;9.15;;;6.72;;
25717;SDS011;13574;52.040;5.692;2023-07-29T04:06:45;10.95;;;6.68;;
25717;SDS011;13574;52.040;5.692;2023-07-29T04:09:11;13.15;;;7.38;;
25717;SDS011;13574;52.040;5.692;2023-07-29T04:11:37;10.85;;;7.35;;
25717;SDS011;13574;52.040;5.692;2023-07-29T04:14:02;11.02;;;7.20;;
25717;SDS011;13574;52.040;5.692;2023-07-29T04:16:28;11.93;;;8.75;;
25717;SDS011;13574;52.040;5.692;2023-07-29T04:18:54;12.90;;;9.27;;
25717;SDS011;13574;52.040;5.692;2023-07-29T04:21:19;12.65;;;8.25;;
25717;SDS011;13574;52.040;5.692;2023-07-29T04:23:45;12.63;;;9.10;;
25717;SDS011;13574;52.040;5.692;2023-07-29T04:26:11;11.52;;;8.07;;
25717;SDS011;13574;52.040;5.692;2023-07-29T04:28:36;11.18;;;8.20;;
25717;SDS011;13574;52.040;5.692;2023-07-29T04:31:02;11.50;;;8.20;;
25717;SDS011;13574;52.040;5.692;2023-07-29T04:33:29;10.88;;;6.90;;
25717;SDS011;13574;52.040;5.692;2023-07-29T04:35:55;10.80;;;7.50;;
25717;SDS011;13574;52.040;5.692;2023-07-29T04:38:21;10.10;;;5.93;;
25717;SDS011;13574;52.040;5.692;2023-07-29T04:40:49;8.85;;;5.90;;
25717;SDS011;13574;52.040;5.692;2023-07-29T04:43:15;8.27;;;5.47;;
25717;SDS011;13574;52.040;5.692;2023-07-29T04:45:44;8.15;;;4.97;;
25717;SDS011;13574;52.040;5.692;2023-07-29T04:48:10;6.35;;;4.28;;
25717;SDS011;13574;52.040;5.692;2023-07-29T04:50:36;7.35;;;4.15;;
25717;SDS011;13574;52.040;5.692;2023-07-29T04:53:01;8.10;;;4.40;;
25717;SDS011;13574;52.040;5.692;2023-07-29T04:55:27;5.72;;;3.88;;
25717;SDS011;13574;52.040;5.692;2023-07-29T04:57:53;10.40;;;4.30;;
25717;SDS011;13574;52.040;5.692;2023-07-29T05:00:18;7.13;;;4.00;;
25717;SDS011;13574;52.040;5.692;2023-07-29T05:02:44;6.85;;;3.47;;
25717;SDS011;13574;52.040;5.692;2023-07-29T05:05:10;7.57;;;3.50;;
25717;SDS011;13574;52.040;5.692;2023-07-29T05:07:35;6.25;;;3.42;;
25717;SDS011;13574;52.040;5.692;2023-07-29T05:10:01;7.05;;;3.47;;
25717;SDS011;13574;52.040;5.692;2023-07-29T05:12:27;5.65;;;3.58;;
25717;SDS011;13574;52.040;5.692;2023-07-29T05:14:54;7.72;;;3.10;;
25717;SDS011;13574;52.040;5.692;2023-07-29T05:17:19;6.03;;;3.63;;
25717;SDS011;13574;52.040;5.692;2023-07-29T05:19:46;5.88;;;3.45;;
25717;SDS011;13574;52.040;5.692;2023-07-29T05:22:12;5.15;;;3.20;;
25717;SDS011;13574;52.040;5.692;2023-07-29T05:24:37;5.47;;;3.42;;
25717;SDS011;13574;52.040;5.692;2023-07-29T05:27:03;5.53;;;3.40;;
25717;SDS011;13574;52.040;5.692;2023-07-29T05:29:29;4.93;;;2.97;;
25717;SDS011;13574;52.040;5.692;2023-07-29T05:31:54;4.88;;;2.55;;
25717;SDS011;13574;52.040;5.692;2023-07-29T05:34:20;5.38;;;2.80;;
25717;SDS011;13574;52.040;5.692;2023-07-29T05:36:46;5.68;;;3.28;;
25717;SDS011;13574;52.040;5.692;2023-07-29T05:39:11;5.30;;;2.90;;
25717;SDS011;13574;52.040;5.692;2023-07-29T05:41:37;5.53;;;3.05;;
25717;SDS011;13574;52.040;5.692;2023-07-29T05:44:02;4.82;;;3.15;;
25717;SDS011;13574;52.040;5.692;2023-07-29T05:46:28;6.13;;;3.05;;
25717;SDS011;13574;52.040;5.692;2023-07-29T05:48:54;7.10;;;3.83;;
25717;SDS011;13574;52.040;5.692;2023-07-29T05:51:20;6.65;;;3.03;;
25717;SDS011;13574;52.040;5.692;2023-07-29T05:53:45;5.68;;;3.35;;
25717;SDS011;13574;52.040;5.692;2023-07-29T05:56:11;6.07;;;3.33;;
25717;SDS011;13574;52.040;5.692;2023-07-29T05:58:36;7.57;;;4.07;;
25717;SDS011;13574;52.040;5.692;2023-07-29T06:01:02;7.18;;;3.42;;
25717;SDS011;13574;52.040;5.692;2023-07-29T06:03:28;7.60;;;3.97;;
25717;SDS011;13574;52.040;5.692;2023-07-29T06:05:54;7.38;;;3.50;;
25717;SDS011;13574;52.040;5.692;2023-07-29T06:08:19;7.25;;;3.45;;
25717;SDS011;13574;52.040;5.692;2023-07-29T06:10:45;8.55;;;4.18;;
25717;SDS011;13574;52.040;5.692;2023-07-29T06:13:11;7.03;;;4.00;;
25717;SDS011;13574;52.040;5.692;2023-07-29T06:15:36;6.28;;;3.92;;
25717;SDS011;13574;52.040;5.692;2023-07-29T06:18:02;6.63;;;4.28;;
25717;SDS011;13574;52.040;5.692;2023-07-29T06:20:28;8.00;;;4.32;;
25717;SDS011;13574;52.040;5.692;2023-07-29T06:22:54;6.78;;;3.70;;
25717;SDS011;13574;52.040;5.692;2023-07-29T06:25:19;9.50;;;4.32;;
25717;SDS011;13574;52.040;5.692;2023-07-29T06:27:45;7.47;;;4.72;;
25717;SDS011;13574;52.040;5.692;2023-07-29T06:30:10;8.38;;;4.05;;
25717;SDS011;13574;52.040;5.692;2023-07-29T06:32:36;6.43;;;3.40;;
25717;SDS011;13574;52.040;5.692;2023-07-29T06:35:02;7.47;;;3.50;;
25717;SDS011;13574;52.040;5.692;2023-07-29T06:37:28;8.23;;;4.25;;
25717;SDS011;13574;52.040;5.692;2023-07-29T06:39:53;7.75;;;4.35;;
25717;SDS011;13574;52.040;5.692;2023-07-29T06:42:19;9.63;;;3.95;;
25717;SDS011;13574;52.040;5.692;2023-07-29T06:44:44;7.53;;;4.18;;
25717;SDS011;13574;52.040;5.692;2023-07-29T06:47:11;7.65;;;4.30;;
25717;SDS011;13574;52.040;5.692;2023-07-29T06:49:37;6.82;;;3.85;;
25717;SDS011;13574;52.040;5.692;2023-07-29T06:52:02;6.05;;;3.75;;
25717;SDS011;13574;52.040;5.692;2023-07-29T06:54:28;6.35;;;3.90;;
25717;SDS011;13574;52.040;5.692;2023-07-29T06:56:54;8.18;;;4.18;;
25717;SDS011;13574;52.040;5.692;2023-07-29T06:59:19;7.93;;;4.25;;
25717;SDS011;13574;52.040;5.692;2023-07-29T07:01:45;7.32;;;4.13;;
25717;SDS011;13574;52.040;5.692;2023-07-29T07:04:11;6.95;;;4.22;;
25717;SDS011;13574;52.040;5.692;2023-07-29T07:06:37;9.38;;;4.22;;
25717;SDS011;13574;52.040;5.692;2023-07-29T07:09:02;7.78;;;3.95;;
25717;SDS011;13574;52.040;5.692;2023-07-29T07:11:30;7.55;;;4.50;;
25717;SDS011;13574;52.040;5.692;2023-07-29T07:13:56;7.50;;;4.22;;
25717;SDS011;13574;52.040;5.692;2023-07-29T07:16:22;6.75;;;4.70;;
25717;SDS011;13574;52.040;5.692;2023-07-29T07:18:47;6.30;;;4.68;;
25717;SDS011;13574;52.040;5.692;2023-07-29T07:21:13;6.82;;;4.43;;
25717;SDS011;13574;52.040;5.692;2023-07-29T07:23:39;5.78;;;4.32;;
25717;SDS011;13574;52.040;5.692;2023-07-29T07:26:04;7.72;;;4.60;;
25717;SDS011;13574;52.040;5.692;2023-07-29T07:28:30;7.38;;;4.85;;
25717;SDS011;13574;52.040;5.692;2023-07-29T07:30:56;6.03;;;4.70;;
25717;SDS011;13574;52.040;5.692;2023-07-29T07:33:22;8.50;;;4.90;;
25717;SDS011;13574;52.040;5.692;2023-07-29T07:35:47;8.65;;;5.40;;
25717;SDS011;13574;52.040;5.692;2023-07-29T07:38:13;8.60;;;5.20;;
25717;SDS011;13574;52.040;5.692;2023-07-29T07:40:39;8.10;;;5.63;;
25717;SDS011;13574;52.040;5.692;2023-07-29T07:43:04;6.25;;;4.70;;
25717;SDS011;13574;52.040;5.692;2023-07-29T07:45:31;7.72;;;5.22;;
25717;SDS011;13574;52.040;5.692;2023-07-29T07:48:00;8.13;;;5.30;;
25717;SDS011;13574;52.040;5.692;2023-07-29T07:53:31;7.50;;;5.85;;
25717;SDS011;13574;52.040;5.692;2023-07-29T07:58:38;10.45;;;5.90;;
25717;SDS011;13574;52.040;5.692;2023-07-29T08:01:12;7.07;;;5.68;;
25717;SDS011;13574;52.040;5.692;2023-07-29T08:03:40;7.95;;;6.18;;
25717;SDS011;13574;52.040;5.692;2023-07-29T08:06:11;6.18;;;5.57;;
25717;SDS011;13574;52.040;5.692;2023-07-29T08:08:59;8.43;;;5.88;;
25717;SDS011;13574;52.040;5.692;2023-07-29T08:11:30;8.02;;;5.63;;
25717;SDS011;13574;52.040;5.692;2023-07-29T08:14:19;8.20;;;6.18;;
25717;SDS011;13574;52.040;5.692;2023-07-29T08:16:57;7.93;;;6.15;;
25717;SDS011;13574;52.040;5.692;2023-07-29T08:19:31;9.38;;;5.90;;
25717;SDS011;13574;52.040;5.692;2023-07-29T08:22:17;7.53;;;5.30;;
25717;SDS011;13574;52.040;5.692;2023-07-29T08:24:45;8.13;;;5.68;;
25717;SDS011;13574;52.040;5.692;2023-07-29T08:27:14;10.15;;;5.90;;
25717;SDS011;13574;52.040;5.692;2023-07-29T08:29:40;9.60;;;5.82;;
25717;SDS011;13574;52.040;5.692;2023-07-29T08:32:10;5.82;;;5.22;;
25717;SDS011;13574;52.040;5.692;2023-07-29T08:34:39;5.95;;;5.22;;
25717;SDS011;13574;52.040;5.692;2023-07-29T08:37:04;6.72;;;4.75;;
25717;SDS011;13574;52.040;5.692;2023-07-29T08:39:33;7.65;;;5.07;;
25717;SDS011;13574;52.040;5.692;2023-07-29T08:42:04;6.13;;;4.13;;
25717;SDS011;13574;52.040;5.692;2023-07-29T08:44:37;3.80;;;3.20;;
25717;SDS011;13574;52.040;5.692;2023-07-29T08:47:11;4.20;;;3.25;;
25717;SDS011;13574;52.040;5.692;2023-07-29T08:49:41;4.95;;;2.63;;
25717;SDS011;13574;52.040;5.692;2023-07-29T08:52:15;4.45;;;2.72;;
25717;SDS011;13574;52.040;5.692;2023-07-29T08:54:49;6.35;;;2.97;;
25717;SDS011;13574;52.040;5.692;2023-07-29T08:57:18;5.20;;;3.20;;
25717;SDS011;13574;52.040;5.692;2023-07-29T08:59:45;4.75;;;2.83;;
25717;SDS011;13574;52.040;5.692;2023-07-29T09:02:11;5.07;;;3.10;;
25717;SDS011;13574;52.040;5.692;2023-07-29T09:04:37;4.53;;;3.17;;
25717;SDS011;13574;52.040;5.692;2023-07-29T09:07:03;3.85;;;3.05;;
25717;SDS011;13574;52.040;5.692;2023-07-29T09:09:31;4.55;;;3.40;;
25717;SDS011;13574;52.040;5.692;2023-07-29T09:11:57;4.75;;;3.20;;
25717;SDS011;13574;52.040;5.692;2023-07-29T09:14:23;4.85;;;2.83;;
25717;SDS011;13574;52.040;5.692;2023-07-29T09:16:49;4.47;;;3.05;;
25717;SDS011;13574;52.040;5.692;2023-07-29T09:19:15;4.57;;;3.30;;
25717;SDS011;13574;52.040;5.692;2023-07-29T09:21:52;5.60;;;3.00;;
25717;SDS011;13574;52.040;5.692;2023-07-29T09:24:20;5.07;;;2.70;;
25717;SDS011;13574;52.040;5.692;2023-07-29T09:26:50;4.45;;;2.80;;
25717;SDS011;13574;52.040;5.692;2023-07-29T09:29:22;3.75;;;2.67;;
25717;SDS011;13574;52.040;5.692;2023-07-29T09:31:48;3.25;;;2.45;;
25717;SDS011;13574;52.040;5.692;2023-07-29T09:34:17;3.55;;;2.35;;
25717;SDS011;13574;52.040;5.692;2023-07-29T09:36:43;3.47;;;2.30;;
25717;SDS011;13574;52.040;5.692;2023-07-29T09:42:29;3.75;;;2.30;;
25717;SDS011;13574;52.040;5.692;2023-07-29T09:45:46;4.75;;;2.40;;
25717;SDS011;13574;52.040;5.692;2023-07-29T09:48:19;3.65;;;2.25;;
25717;SDS011;13574;52.040;5.692;2023-07-29T09:51:10;3.60;;;2.65;;
25717;SDS011;13574;52.040;5.692;2023-07-29T09:53:58;3.55;;;2.50;;
25717;SDS011;13574;52.040;5.692;2023-07-29T09:56:45;4.50;;;2.30;;
25717;SDS011;13574;52.040;5.692;2023-07-29T09:59:28;4.40;;;2.17;;
25717;SDS011;13574;52.040;5.692;2023-07-29T10:02:42;2.75;;;1.80;;
25717;SDS011;13574;52.040;5.692;2023-07-29T10:05:38;2.40;;;2.10;;
25717;SDS011;13574;52.040;5.692;2023-07-29T10:08:08;3.28;;;1.98;;
25717;SDS011;13574;52.040;5.692;2023-07-29T10:10:36;2.80;;;1.80;;
25717;SDS011;13574;52.040;5.692;2023-07-29T10:13:09;3.00;;;1.98;;
25717;SDS011;13574;52.040;5.692;2023-07-29T10:15:35;2.83;;;1.80;;
25717;SDS011;13574;52.040;5.692;2023-07-29T10:18:11;2.58;;;2.03;;
25717;SDS011;13574;52.040;5.692;2023-07-29T10:20:37;2.75;;;2.03;;
25717;SDS011;13574;52.040;5.692;2023-07-29T10:23:07;2.60;;;1.73;;
25717;SDS011;13574;52.040;5.692;2023-07-29T10:25:38;3.05;;;1.83;;
25717;SDS011;13574;52.040;5.692;2023-07-29T10:28:08;2.72;;;1.90;;
25717;SDS011;13574;52.040;5.692;2023-07-29T10:30:52;3.40;;;2.00;;
25717;SDS011;13574;52.040;5.692;2023-07-29T10:33:27;2.72;;;1.83;;
25717;SDS011;13574;52.040;5.692;2023-07-29T10:35:55;3.60;;;1.95;;
25717;SDS011;13574;52.040;5.692;2023-07-29T10:38:21;3.90;;;2.05;;
25717;SDS011;13574;52.040;5.692;2023-07-29T10:40:50;2.65;;;1.70;;
25717;SDS011;13574;52.040;5.692;2023-07-29T10:43:31;3.75;;;1.85;;
25717;SDS011;13574;52.040;5.692;2023-07-29T10:46:19;3.00;;;2.10;;
25717;SDS011;13574;52.040;5.692;2023-07-29T10:48:53;2.65;;;1.88;;
25717;SDS011;13574;52.040;5.692;2023-07-29T10:51:23;3.33;;;1.90;;
25717;SDS011;13574;52.040;5.692;2023-07-29T10:54:02;3.65;;;2.20;;
25717;SDS011;13574;52.040;5.692;2023-07-29T10:56:36;2.45;;;1.98;;
25717;SDS011;13574;52.040;5.692;2023-07-29T11:01:41;3.22;;;2.22;;
25717;SDS011;13574;52.040;5.692;2023-07-29T11:17:57;3.13;;;2.13;;
25717;SDS011;13574;52.040;5.692;2023-07-29T11:20:27;3.83;;;2.20;;
25717;SDS011;13574;52.040;5.692;2023-07-29T11:22:54;3.28;;;2.38;;
25717;SDS011;13574;52.040;5.692;2023-07-29T11:25:22;2.92;;;2.10;;
25717;SDS011;13574;52.040;5.692;2023-07-29T11:27:50;3.95;;;2.58;;
25717;SDS011;13574;52.040;5.692;2023-07-29T11:30:18;4.55;;;2.53;;
25717;SDS011;13574;52.040;5.692;2023-07-29T11:32:46;4.38;;;2.47;;
25717;SDS011;13574;52.040;5.692;2023-07-29T11:35:16;3.03;;;2.05;;
25717;SDS011;13574;52.040;5.692;2023-07-29T11:37:47;3.85;;;2.60;;
25717;SDS011;13574;52.040;5.692;2023-07-29T11:40:14;3.17;;;2.47;;
25717;SDS011;13574;52.040;5.692;2023-07-29T11:42:41;3.63;;;2.47;;
25717;SDS011;13574;52.040;5.692;2023-07-29T11:45:07;3.92;;;2.55;;
25717;SDS011;13574;52.040;5.692;2023-07-29T11:47:33;4.15;;;2.63;;
25717;SDS011;13574;52.040;5.692;2023-07-29T11:50:06;4.35;;;2.40;;
25717;SDS011;13574;52.040;5.692;2023-07-29T11:52:34;3.72;;;2.25;;
25717;SDS011;13574;52.040;5.692;2023-07-29T11:55:01;4.82;;;2.58;;
25717;SDS011;13574;52.040;5.692;2023-07-29T11:57:28;4.40;;;2.38;;
25717;SDS011;13574;52.040;5.692;2023-07-29T11:59:55;4.28;;;2.58;;
25717;SDS011;13574;52.040;5.692;2023-07-29T12:02:20;5.38;;;2.70;;
25717;SDS011;13574;52.040;5.692;2023-07-29T12:04:48;5.95;;;2.70;;
25717;SDS011;13574;52.040;5.692;2023-07-29T12:07:16;3.97;;;2.63;;
25717;SDS011;13574;52.040;5.692;2023-07-29T12:09:42;4.50;;;3.10;;
25717;SDS011;13574;52.040;5.692;2023-07-29T12:12:08;7.28;;;3.20;;
25717;SDS011;13574;52.040;5.692;2023-07-29T12:14:34;5.75;;;3.28;;
25717;SDS011;13574;52.040;5.692;2023-07-29T12:17:00;4.95;;;3.58;;
25717;SDS011;13574;52.040;5.692;2023-07-29T12:19:34;4.07;;;3.45;;
25717;SDS011;13574;52.040;5.692;2023-07-29T12:22:02;5.20;;;3.88;;
25717;SDS011;13574;52.040;5.692;2023-07-29T12:24:35;6.47;;;3.67;;
25717;SDS011;13574;52.040;5.692;2023-07-29T12:27:03;4.10;;;3.45;;
25717;SDS011;13574;52.040;5.692;2023-07-29T12:29:29;4.22;;;3.58;;
25717;SDS011;13574;52.040;5.692;2023-07-29T12:32:01;6.00;;;3.70;;
25717;SDS011;13574;52.040;5.692;2023-07-29T12:34:28;4.85;;;3.65;;
25717;SDS011;13574;52.040;5.692;2023-07-29T12:36:56;3.92;;;3.10;;
25717;SDS011;13574;52.040;5.692;2023-07-29T12:42:00;4.63;;;3.10;;
25717;SDS011;13574;52.040;5.692;2023-07-29T12:44:37;3.85;;;2.90;;
25717;SDS011;13574;52.040;5.692;2023-07-29T12:47:14;4.07;;;2.95;;
25717;SDS011;13574;52.040;5.692;2023-07-29T12:55:47;3.05;;;2.30;;
25717;SDS011;13574;52.040;5.692;2023-07-29T13:01:34;2.80;;;2.50;;
25717;SDS011;13574;52.040;5.692;2023-07-29T13:06:51;4.53;;;3.35;;
25717;SDS011;13574;52.040;5.692;2023-07-29T13:09:17;4.07;;;3.67;;
25717;SDS011;13574;52.040;5.692;2023-07-29T13:11:43;4.32;;;3.47;;
25717;SDS011;13574;52.040;5.692;2023-07-29T13:14:08;3.40;;;2.80;;
25717;SDS011;13574;52.040;5.692;2023-07-29T13:16:34;4.03;;;2.85;;
25717;SDS011;13574;52.040;5.692;2023-07-29T13:19:00;3.58;;;2.70;;
25717;SDS011;13574;52.040;5.692;2023-07-29T13:21:29;3.80;;;3.13;;
25717;SDS011;13574;52.040;5.692;2023-07-29T13:23:55;3.72;;;3.10;;
25717;SDS011;13574;52.040;5.692;2023-07-29T13:26:25;5.10;;;3.55;;
25717;SDS011;13574;52.040;5.692;2023-07-29T13:28:56;11.98;;;4.10;;
25717;SDS011;13574;52.040;5.692;2023-07-29T13:31:21;5.68;;;4.22;;
25717;SDS011;13574;52.040;5.692;2023-07-29T13:33:47;7.47;;;3.70;;
25717;SDS011;13574;52.040;5.692;2023-07-29T13:36:17;6.65;;;4.80;;
25717;SDS011;13574;52.040;5.692;2023-07-29T13:38:46;8.45;;;5.32;;
25717;SDS011;13574;52.040;5.692;2023-07-29T13:41:22;7.20;;;6.15;;
25717;SDS011;13574;52.040;5.692;2023-07-29T13:44:22;8.57;;;7.07;;
25717;SDS011;13574;52.040;5.692;2023-07-29T13:47:26;9.98;;;8.95;;
25717;SDS011;13574;52.040;5.692;2023-07-29T13:50:03;11.27;;;10.07;;
25717;SDS011;13574;52.040;5.692;2023-07-29T13:52:29;11.75;;;10.18;;
25717;SDS011;13574;52.040;5.692;2023-07-29T13:54:57;10.50;;;9.18;;
25717;SDS011;13574;52.040;5.692;2023-07-29T13:57:26;9.70;;;8.75;;
25717;SDS011;13574;52.040;5.692;2023-07-29T14:00:09;11.40;;;9.30;;
25717;SDS011;13574;52.040;5.692;2023-07-29T14:02:38;10.10;;;9.00;;
25717;SDS011;13574;52.040;5.692;2023-07-29T14:05:06;11.38;;;10.18;;
25717;SDS011;13574;52.040;5.692;2023-07-29T14:07:46;10.50;;;9.13;;
25717;SDS011;13574;52.040;5.692;2023-07-29T14:10:17;11.25;;;9.52;;
25717;SDS011;13574;52.040;5.692;2023-07-29T14:13:07;12.10;;;9.68;;
25717;SDS011;13574;52.040;5.692;2023-07-29T14:25:05;9.75;;;8.25;;
25717;SDS011;13574;52.040;5.692;2023-07-29T14:28:00;8.88;;;7.82;;
25717;SDS011;13574;52.040;5.692;2023-07-29T14:30:29;8.98;;;7.68;;
25717;SDS011;13574;52.040;5.692;2023-07-29T14:32:57;7.38;;;6.68;;
25717;SDS011;13574;52.040;5.692;2023-07-29T14:35:23;9.98;;;7.32;;
25717;SDS011;13574;52.040;5.692;2023-07-29T14:38:07;7.95;;;6.90;;
25717;SDS011;13574;52.040;5.692;2023-07-29T14:40:36;7.28;;;6.40;;
25717;SDS011;13574;52.040;5.692;2023-07-29T14:43:04;6.07;;;5.47;;
25717;SDS011;13574;52.040;5.692;2023-07-29T14:45:35;6.35;;;5.55;;
25717;SDS011;13574;52.040;5.692;2023-07-29T14:48:03;6.70;;;5.07;;
25717;SDS011;13574;52.040;5.692;2023-07-29T14:50:50;6.72;;;5.03;;
25717;SDS011;13574;52.040;5.692;2023-07-29T14:53:16;6.28;;;4.78;;
25717;SDS011;13574;52.040;5.692;2023-07-29T14:55:49;5.55;;;4.13;;
25717;SDS011;13574;52.040;5.692;2023-07-29T14:58:18;5.13;;;4.20;;
25717;SDS011;13574;52.040;5.692;2023-07-29T15:00:59;4.00;;;3.30;;
25717;SDS011;13574;52.040;5.692;2023-07-29T15:03:25;3.78;;;3.35;;
25717;SDS011;13574;52.040;5.692;2023-07-29T15:06:16;5.07;;;3.72;;
25717;SDS011;13574;52.040;5.692;2023-07-29T15:11:14;4.60;;;3.33;;
25717;SDS011;13574;52.040;5.692;2023-07-29T15:13:40;4.25;;;3.50;;
25717;SDS011;13574;52.040;5.692;2023-07-29T15:16:06;4.32;;;3.35;;
25717;SDS011;13574;52.040;5.692;2023-07-29T15:18:32;5.88;;;3.50;;
25717;SDS011;13574;52.040;5.692;2023-07-29T15:20:58;4.03;;;3.35;;
25717;SDS011;13574;52.040;5.692;2023-07-29T15:23:34;4.43;;;3.20;;
25717;SDS011;13574;52.040;5.692;2023-07-29T15:26:07;4.95;;;3.33;;
25717;SDS011;13574;52.040;5.692;2023-07-29T15:28:37;3.63;;;2.80;;
25717;SDS011;13574;52.040;5.692;2023-07-29T15:31:06;3.30;;;2.92;;
25717;SDS011;13574;52.040;5.692;2023-07-29T15:33:31;3.35;;;3.00;;
25717;SDS011;13574;52.040;5.692;2023-07-29T15:36:08;3.33;;;2.67;;
25717;SDS011;13574;52.040;5.692;2023-07-29T15:38:37;4.07;;;2.90;;
25717;SDS011;13574;52.040;5.692;2023-07-29T15:41:23;3.50;;;2.13;;
25717;SDS011;13574;52.040;5.692;2023-07-29T15:43:54;2.40;;;2.20;;
25717;SDS011;13574;52.040;5.692;2023-07-29T15:46:29;2.95;;;2.40;;
25717;SDS011;13574;52.040;5.692;2023-07-29T15:49:00;3.83;;;2.10;;